Terminal Aerodrome Forecast
Issued by NWS Louisville, KY

Home | Current Version | Previous Version | Text Only | Print | Product List | Glossary On
Versions: 1 2 3 4 5 6 7 8 9 10 11 12 13
000
FTUS43 KLMK 282320
TAFSDF
TAF
KSDF 282320Z 2900/3006 19010KT P6SM VCSH FEW040 BKN150
     FM290100 18005KT P6SM BKN200
     FM291400 22007KT P6SM SCT250
     FM292000 25007KT P6SM VCSH BKN050
     FM300100 29005KT P6SM SCT250=

USA.gov is the U.S. government's official web portal to all federal, state and local government web resources and services.